This is the latest recevied weather packets stored in our database for station/object SP6W-10. If no packets are shown the sender has not sent any weather packets the latest 10 day(s).
| Time | Temp. | Humidity | Pressure | Rain* | Wind** | Luminosity | Snow |
|---|---|---|---|---|---|---|---|
| 1777722174 | 28.89° C | 19% | 1023.6 hPa | - | - | - | - |
| 1777720374 | 27.78° C | 20% | 1023.9 hPa | - | - | - | - |
| 1777718574 | 27.22° C | 21% | 1024.2 hPa | - | - | - | - |
| 1777716774 | 27.22° C | 22% | 1024.5 hPa | - | - | - | - |
| 1777714973 | 26.11° C | 23% | 1024.9 hPa | - | - | - | - |
| 1777713177 | 26.11° C | 23% | 1025.2 hPa | - | - | - | - |
| 1777711378 | 25.56° C | 25% | 1025.4 hPa | - | - | - | - |
| 1777707781 | 25° C | 27% | 1025.7 hPa | - | - | - | - |
| 1777705978 | 25° C | 27% | 1025.7 hPa | - | - | - | - |
| 1777704178 | 24.44° C | 26% | 1025.7 hPa | - | - | - | - |
| 1777702381 | 24.44° C | 24% | 1025.7 hPa | - | - | - | - |
| 1777700581 | 24.44° C | 24% | 1025.6 hPa | - | - | - | - |
| 1777696981 | 23.89° C | 24% | 1025.6 hPa | - | - | - | - |
| 1777695181 | 24.44° C | 23% | 1025.5 hPa | - | - | - | - |
| 1777693381 | 24.44° C | 22% | 1025.5 hPa | - | - | - | - |
| 1777691581 | 24.44° C | 23% | 1025.6 hPa | - | - | - | - |
| 1777689781 | 25° C | 22% | 1025.6 hPa | - | - | - | - |
| 1777687981 | 25° C | 22% | 1025.7 hPa | - | - | - | - |
| 1777686181 | 25.56° C | 22% | 1025.8 hPa | - | - | - | - |
| 1777684381 | 25.56° C | 22% | 1025.9 hPa | - | - | - | - |
| 1777682578 | 26.11° C | 22% | 1026 hPa | - | - | - | - |
| 1777680778 | 26.11° C | 21% | 1026.1 hPa | - | - | - | - |
| 1777678978 | 26.11° C | 21% | 1026.2 hPa | - | - | - | - |
| 1777677178 | 26.67° C | 21% | 1026.4 hPa | - | - | - | - |
| 1777675378 | 26.67° C | 21% | 1026.3 hPa | - | - | - | - |
* Rain since midnight (hover to see other rain measurements)
** Current wind speed in m/s (hover to see current wind gust speed)